Time;durP1;ratioP1;P1;durP2;ratioP2;P2;SDS_P1;SDS_P2;PMS_P1;PMS_P2;Temp;Humidity;BMP_temperature;BMP_pressure;BME280_temperature;BME280_humidity;BME280_pressure;Samples;Min_cycle;Max_cycle;Signal;HPM_P1;HPM_P2
2022/07/13 00:01:30;;;;;;;4.40;1.83;;;;;;;20.94;96.49;101283.50;4956078;29;20031;-77
2022/07/13 00:04:16;;;;;;;3.67;1.95;;;;;;;21.07;95.35;101287.28;4956265;28;20031;-77
2022/07/13 00:07:02;;;;;;;3.78;1.70;;;;;;;20.61;98.34;101282.50;4955407;29;20049;-76
2022/07/13 00:09:47;;;;;;;4.30;1.75;;;;;;;20.86;97.25;101284.81;4955527;29;20027;-76
2022/07/13 00:12:33;;;;;;;4.32;2.00;;;;;;;21.05;96.51;101281.13;4955518;29;20090;-76
2022/07/13 00:15:19;;;;;;;4.22;1.77;;;;;;;21.10;95.65;101286.25;4942037;29;20031;-77
2022/07/13 00:18:05;;;;;;;2.95;1.58;;;;;;;21.10;95.02;101286.25;4956644;29;20114;-77
2022/07/13 00:20:50;;;;;;;2.30;1.48;;;;;;;21.24;94.25;101283.72;4942593;29;20038;-77
2022/07/13 00:23:36;;;;;;;7.15;1.80;;;;;;;20.81;96.22;101285.03;4942291;28;20511;-77
2022/07/13 00:26:22;;;;;;;3.97;1.75;;;;;;;20.90;97.26;101278.38;4955462;29;20055;-77
2022/07/13 00:29:08;;;;;;;2.30;1.70;;;;;;;21.16;95.80;101285.91;4956414;29;20024;-76
2022/07/13 00:31:53;;;;;;;2.10;1.67;;;;;;;21.16;94.45;101283.25;4955423;29;20471;-77
2022/07/13 00:34:39;;;;;;;2.00;1.73;;;;;;;21.08;94.07;101289.00;4956069;28;20045;-77
2022/07/13 00:37:25;;;;;;;5.22;1.63;;;;;;;21.57;92.69;101301.47;4942586;29;20039;-77
2022/07/13 00:40:12;;;;;;;3.40;1.52;;;;;;;21.38;93.48;101305.19;4955518;29;20124;-77
2022/07/13 00:42:57;;;;;;;4.85;2.88;;;;;;;21.32;92.81;101309.03;4958017;28;20462;-77
2022/07/13 00:45:43;;;;;;;7.22;2.88;;;;;;;21.06;100.00;101298.84;4959257;29;20378;-78
2022/07/13 00:48:30;;;;;;;9.55;5.00;;;;;;;21.14;100.00;101309.13;4958904;29;20035;-76
2022/07/13 00:51:16;;;;;;;7.15;2.70;;;;;;;20.78;100.00;101308.28;4945235;29;20035;-77
2022/07/13 00:54:03;;;;;;;5.38;2.90;;;;;;;20.54;100.00;101297.03;4959060;28;20051;-76
2022/07/13 00:56:49;;;;;;;10.00;4.28;;;;;;;20.62;100.00;101304.66;4959414;29;20113;-77
2022/07/13 00:59:36;;;;;;;21.58;7.70;;;;;;;20.65;100.00;101304.53;4959497;29;20023;-77
2022/07/13 01:02:22;;;;;;;16.42;5.82;;;;;;;20.46;100.00;101299.25;4960109;29;20027;-76
2022/07/13 01:05:09;;;;;;;7.72;3.70;;;;;;;19.65;100.00;101294.25;4945810;29;20454;-76
2022/07/13 01:07:56;;;;;;;5.72;2.97;;;;;;;19.54;100.00;101293.88;4959143;29;20066;-76
2022/07/13 01:10:42;;;;;;;3.97;2.67;;;;;;;19.73;100.00;101292.97;4958606;29;20039;-77
2022/07/13 01:13:28;;;;;;;8.25;3.80;;;;;;;19.90;100.00;101303.72;4959106;28;20061;-75
2022/07/13 01:16:14;;;;;;;8.48;3.88;;;;;;;19.63;100.00;101309.41;4958633;29;20095;-76
2022/07/13 01:19:02;;;;;;;7.78;3.60;;;;;;;19.83;100.00;101317.34;4945810;29;20035;-77
2022/07/13 01:21:55;;;;;;;6.38;2.80;;;;;;;19.77;100.00;101305.19;4945859;29;20038;-76
2022/07/13 01:24:40;;;;;;;6.57;2.83;;;;;;;19.71;100.00;101312.56;4958611;28;20027;-77
2022/07/13 01:27:26;;;;;;;7.75;2.83;;;;;;;19.81;100.00;101312.09;4958272;29;20135;-76
2022/07/13 01:30:12;;;;;;;4.85;2.88;;;;;;;19.50;100.00;101317.09;4958997;29;20027;-76
2022/07/13 01:32:58;;;;;;;4.90;2.63;;;;;;;19.18;100.00;101301.66;4945385;29;20027;-76
2022/07/13 01:35:44;;;;;;;5.05;2.65;;;;;;;18.90;100.00;101309.91;4958473;29;20023;-77
2022/07/13 01:38:30;;;;;;;4.07;2.60;;;;;;;19.25;100.00;101313.75;4945372;29;20027;-76
2022/07/13 01:41:18;;;;;;;3.60;2.50;;;;;;;19.63;100.00;101318.25;4958308;29;20414;-77
2022/07/13 01:44:04;;;;;;;4.70;2.65;;;;;;;19.84;100.00;101322.59;4945280;29;20023;-76
2022/07/13 01:46:50;;;;;;;3.55;2.22;;;;;;;19.95;100.00;101319.44;4958654;29;20373;-76
2022/07/13 01:49:35;;;;;;;3.83;2.38;;;;;;;19.86;100.00;101331.38;4959266;29;20034;-77
2022/07/13 01:52:21;;;;;;;2.83;2.08;;;;;;;19.97;100.00;101325.56;4944189;28;20042;-76
2022/07/13 01:55:09;;;;;;;5.32;2.13;;;;;;;19.92;100.00;101332.88;4958177;28;20031;-76
2022/07/13 01:57:59;;;;;;;2.97;1.90;;;;;;;19.68;100.00;101328.69;4958234;29;20097;-76
2022/07/13 02:00:45;;;;;;;2.28;2.08;;;;;;;19.76;100.00;101330.06;4957508;29;20031;-76
2022/07/13 02:03:32;;;;;;;3.70;2.00;;;;;;;19.18;100.00;101318.44;4958043;28;20109;-76
2022/07/13 02:06:18;;;;;;;3.88;2.20;;;;;;;19.35;100.00;101315.09;4944008;29;20050;-77
2022/07/13 02:09:04;;;;;;;2.92;2.08;;;;;;;18.96;100.00;101324.72;4945053;29;20105;-76
2022/07/13 02:11:49;;;;;;;6.00;2.40;;;;;;;19.06;100.00;101321.63;4957920;29;20118;-76
2022/07/13 02:14:35;;;;;;;3.65;2.33;;;;;;;18.89;100.00;101320.63;4957551;28;20373;-76
2022/07/13 02:17:21;;;;;;;4.32;2.28;;;;;;;19.15;100.00;101320.38;4958146;29;20031;-76
2022/07/13 02:20:08;;;;;;;4.25;2.35;;;;;;;18.64;100.00;101320.75;4958216;29;20465;-75
2022/07/13 02:22:54;;;;;;;5.45;3.03;;;;;;;18.66;100.00;101324.19;4957668;29;20031;-76
2022/07/13 02:25:40;;;;;;;5.03;2.72;;;;;;;18.75;100.00;101333.59;4958044;29;20335;-77
2022/07/13 02:28:25;;;;;;;6.82;2.70;;;;;;;19.29;100.00;101328.63;4958404;29;20023;-76
2022/07/13 02:31:13;;;;;;;3.80;2.70;;;;;;;18.86;100.00;101334.03;4957927;29;20366;-76
2022/07/13 02:33:59;;;;;;;10.38;2.92;;;;;;;18.64;100.00;101330.50;4956474;28;20058;-76
2022/07/13 02:36:45;;;;;;;6.13;2.90;;;;;;;18.31;100.00;101330.06;4957398;29;20521;-76
2022/07/13 02:39:31;;;;;;;5.70;2.88;;;;;;;18.31;100.00;101326.53;4957405;29;20480;-76
2022/07/13 02:42:17;;;;;;;5.38;2.78;;;;;;;18.67;100.00;101325.09;4957206;29;20031;-76
2022/07/13 02:45:04;;;;;;;5.32;3.20;;;;;;;18.75;100.00;101321.19;4957189;28;20118;-76
2022/07/13 02:47:49;;;;;;;5.88;3.05;;;;;;;18.71;100.00;101316.94;4958380;29;20023;-76
2022/07/13 02:50:35;;;;;;;9.65;3.72;;;;;;;18.90;100.00;101315.22;4958655;29;20035;-76
2022/07/13 02:53:21;;;;;;;6.10;3.50;;;;;;;18.61;100.00;101325.34;4957806;28;20035;-76
2022/07/13 02:56:07;;;;;;;4.28;3.10;;;;;;;18.62;100.00;101311.97;4958182;29;20450;-76
2022/07/13 02:58:53;;;;;;;6.45;2.97;;;;;;;18.73;100.00;101315.06;4956106;29;20114;-76
2022/07/13 03:01:38;;;;;;;6.60;3.05;;;;;;;18.94;100.00;101323.94;4956960;29;20114;-76
2022/07/13 03:04:24;;;;;;;5.13;2.70;;;;;;;19.12;100.00;101323.16;4956936;28;20492;-77
2022/07/13 03:07:10;;;;;;;3.78;2.75;;;;;;;18.67;100.00;101330.41;4957635;29;20114;-76
2022/07/13 03:09:57;;;;;;;5.82;2.60;;;;;;;18.85;100.00;101324.34;4957148;29;20031;-77
2022/07/13 03:12:42;;;;;;;5.25;2.85;;;;;;;19.38;100.00;101322.94;4957605;29;20354;-76
2022/07/13 03:15:28;;;;;;;4.35;2.70;;;;;;;18.84;100.00;101331.44;4956714;28;20031;-76
2022/07/13 03:18:14;;;;;;;6.78;3.20;;;;;;;19.16;100.00;101322.97;4957054;29;20034;-76
2022/07/13 03:21:00;;;;;;;3.60;2.60;;;;;;;18.84;100.00;101328.78;4956544;29;20034;-75
2022/07/13 03:23:46;;;;;;;5.10;2.35;;;;;;;18.55;100.00;101331.75;4956671;28;20033;-77
2022/07/13 03:26:32;;;;;;;6.65;2.58;;;;;;;18.92;100.00;101331.09;4957072;29;20047;-75
2022/07/13 03:29:17;;;;;;;7.00;2.40;;;;;;;18.98;100.00;101329.03;4957093;29;20027;-77
2022/07/13 03:32:04;;;;;;;6.35;2.42;;;;;;;18.95;100.00;101330.97;4957640;29;20137;-77
2022/07/13 03:34:49;;;;;;;7.63;2.83;;;;;;;18.99;100.00;101340.53;4956232;28;20027;-75
2022/07/13 03:37:35;;;;;;;3.97;2.50;;;;;;;18.91;100.00;101334.69;4957242;29;20152;-76
2022/07/13 03:40:21;;;;;;;5.05;2.10;;;;;;;18.69;100.00;101331.22;4957049;28;20142;-76
2022/07/13 03:43:06;;;;;;;4.55;2.40;;;;;;;18.74;100.00;101329.22;4956871;29;20038;-77
2022/07/13 03:45:52;;;;;;;7.30;2.50;;;;;;;19.10;100.00;101331.19;4955654;29;20106;-76
2022/07/13 03:48:38;;;;;;;5.72;2.55;;;;;;;19.15;100.00;101331.00;4957826;29;20027;-76
2022/07/13 03:51:24;;;;;;;4.93;2.40;;;;;;;19.67;100.00;101321.63;4942554;29;20474;-76
2022/07/13 03:54:10;;;;;;;4.72;2.38;;;;;;;19.63;100.00;101318.25;4956024;28;20046;-76
2022/07/13 03:56:55;;;;;;;6.45;2.20;;;;;;;19.85;100.00;101320.81;4955940;29;20035;-77
2022/07/13 03:59:41;;;;;;;5.35;2.63;;;;;;;19.87;100.00;101318.91;4956653;29;20038;-77
2022/07/13 04:02:27;;;;;;;3.25;2.15;;;;;;;19.79;100.00;101321.06;4956809;29;20114;-76
2022/07/13 04:05:13;;;;;;;10.23;2.67;;;;;;;19.72;100.00;101328.47;4942852;29;20034;-77
2022/07/13 04:07:58;;;;;;;5.88;2.33;;;;;;;19.83;100.00;101327.97;4956190;29;20039;-77
2022/07/13 04:10:44;;;;;;;4.85;2.58;;;;;;;20.09;100.00;101327.66;4942732;29;20027;-77
2022/07/13 04:13:30;;;;;;;3.67;2.13;;;;;;;19.74;100.00;101331.94;4956195;28;20029;-76
2022/07/13 04:16:16;;;;;;;3.75;2.55;;;;;;;19.83;100.00;101325.31;4955744;28;20031;-77
2022/07/13 04:19:02;;;;;;;3.58;2.30;;;;;;;20.08;100.00;101325.91;4955938;29;20031;-77
2022/07/13 04:21:48;;;;;;;8.02;2.60;;;;;;;19.73;100.00;101332.84;4956297;29;20028;-76
2022/07/13 04:24:33;;;;;;;7.38;2.92;;;;;;;19.77;100.00;101323.78;4956451;28;20103;-77
2022/07/13 04:27:19;;;;;;;7.85;2.40;;;;;;;19.86;100.00;101327.84;4955430;29;20366;-76
2022/07/13 04:30:06;;;;;;;6.53;2.22;;;;;;;19.96;100.00;101326.47;4956370;29;20035;-77
2022/07/13 04:32:51;;;;;;;6.68;2.70;;;;;;;20.14;100.00;101336.31;4942867;29;20027;-77
2022/07/13 04:35:37;;;;;;;4.63;2.78;;;;;;;20.03;100.00;101334.13;4956625;29;20023;-76
2022/07/13 04:38:23;;;;;;;5.88;2.63;;;;;;;20.04;100.00;101329.63;4955782;29;20466;-77
2022/07/13 04:41:08;;;;;;;4.03;2.50;;;;;;;20.27;100.00;101337.44;4956222;29;20031;-77
2022/07/13 04:43:54;;;;;;;3.88;2.53;;;;;;;20.33;100.00;101338.00;4942539;29;20051;-78
2022/07/13 04:46:40;;;;;;;9.23;2.85;;;;;;;20.47;100.00;101337.34;4955762;29;20127;-76
2022/07/13 04:49:26;;;;;;;4.63;2.60;;;;;;;20.04;100.00;101333.16;4956281;29;20481;-77
2022/07/13 04:52:12;;;;;;;5.50;3.17;;;;;;;20.40;100.00;101335.91;4955831;29;20077;-77
2022/07/13 04:55:00;;;;;;;3.75;2.72;;;;;;;19.91;100.00;101332.03;4954855;28;20384;-77
2022/07/13 04:57:45;;;;;;;3.90;2.67;;;;;;;20.40;100.00;101328.81;4955916;29;20484;-77
2022/07/13 05:00:31;;;;;;;6.65;2.60;;;;;;;19.71;100.00;101342.69;4956394;29;20453;-76
2022/07/13 05:03:17;;;;;;;5.45;3.00;;;;;;;20.12;100.00;101340.81;4955276;28;20077;-77
2022/07/13 05:06:02;;;;;;;4.90;2.55;;;;;;;20.08;100.00;101336.53;4955425;29;20093;-77
2022/07/13 05:08:48;;;;;;;7.20;2.75;;;;;;;19.74;100.00;101342.56;4955223;29;20027;-77
2022/07/13 05:11:34;;;;;;;7.20;2.63;;;;;;;19.92;100.00;101344.38;4955264;29;20130;-77
2022/07/13 05:14:20;;;;;;;5.63;3.15;;;;;;;20.23;100.00;101341.19;4955905;28;20365;-77
2022/07/13 05:17:05;;;;;;;5.55;3.58;;;;;;;20.61;100.00;101338.41;4955493;29;20162;-76
2022/07/13 05:19:51;;;;;;;5.50;3.70;;;;;;;20.73;100.00;101339.63;4941833;29;20039;-78
2022/07/13 05:22:37;;;;;;;5.10;3.20;;;;;;;20.78;100.00;101348.25;4955735;29;20451;-76
2022/07/13 05:25:23;;;;;;;7.65;3.72;;;;;;;20.50;100.00;101345.19;4955283;28;20433;-77
2022/07/13 05:28:09;;;;;;;5.60;3.42;;;;;;;20.75;100.00;101343.06;4957236;28;20047;-77
2022/07/13 05:30:54;;;;;;;6.03;3.47;;;;;;;20.44;100.00;101346.34;4932251;29;20034;-77
2022/07/13 05:33:40;;;;;;;5.05;3.10;;;;;;;20.63;100.00;101339.22;4958897;28;20589;-77
2022/07/13 05:36:26;;;;;;;9.65;3.47;;;;;;;20.77;100.00;101349.19;4959551;29;20475;-77
2022/07/13 05:39:12;;;;;;;6.80;3.15;;;;;;;20.80;100.00;101344.56;4958261;29;20039;-78
2022/07/13 05:41:58;;;;;;;5.00;2.80;;;;;;;21.15;100.00;101346.38;4958678;29;20020;-77
2022/07/13 05:44:43;;;;;;;6.68;3.42;;;;;;;21.30;100.00;101348.22;4958288;28;20428;-77
2022/07/13 05:47:29;;;;;;;7.18;3.30;;;;;;;21.06;100.00;101349.47;4958168;29;20046;-77
2022/07/13 05:50:15;;;;;;;6.63;3.50;;;;;;;20.98;100.00;101346.34;4944853;29;20446;-77
2022/07/13 05:53:01;;;;;;;7.55;3.45;;;;;;;20.90;100.00;101352.97;4944935;29;20046;-77
2022/07/13 05:55:46;;;;;;;11.30;4.00;;;;;;;20.51;100.00;101355.78;4958427;29;20047;-77
2022/07/13 05:58:32;;;;;;;8.77;3.95;;;;;;;20.70;100.00;101351.28;4958361;29;20053;-77
2022/07/13 06:01:18;;;;;;;7.43;3.55;;;;;;;21.07;100.00;101342.34;4958049;29;20054;-77
2022/07/13 06:04:04;;;;;;;6.63;3.47;;;;;;;21.31;100.00;101346.44;4957317;28;20031;-77
2022/07/13 06:06:50;;;;;;;5.53;3.40;;;;;;;21.45;100.00;101344.78;4957903;29;20038;-78
2022/07/13 06:09:36;;;;;;;7.35;3.75;;;;;;;21.53;100.00;101358.56;4957696;29;20035;-78
2022/07/13 06:12:21;;;;;;;5.70;3.30;;;;;;;21.46;100.00;101351.81;4958380;29;20458;-77
2022/07/13 06:15:08;;;;;;;10.30;3.63;;;;;;;21.86;100.00;101351.47;4957852;28;20452;-77
2022/07/13 06:17:53;;;;;;;6.30;3.80;;;;;;;21.91;100.00;101353.91;4957706;29;20046;-77
2022/07/13 06:20:39;;;;;;;5.70;3.55;;;;;;;21.70;100.00;101350.56;4958255;29;20031;-77
2022/07/13 06:23:25;;;;;;;7.75;4.18;;;;;;;21.91;100.00;101340.56;4943932;28;20095;-76
2022/07/13 06:26:10;;;;;;;5.20;3.15;;;;;;;21.92;100.00;101337.81;4957919;29;20051;-76
2022/07/13 06:28:56;;;;;;;12.70;4.28;;;;;;;22.12;100.00;101332.25;4946056;29;20038;-76
2022/07/13 06:31:42;;;;;;;5.50;3.83;;;;;;;22.55;100.00;101339.59;4959843;29;20031;-77
2022/07/13 06:34:28;;;;;;;7.40;3.72;;;;;;;22.28;100.00;101340.25;4943969;29;20054;-77
2022/07/13 06:37:14;;;;;;;5.75;3.50;;;;;;;22.45;100.00;101338.38;4960750;28;20023;-75
2022/07/13 06:39:59;;;;;;;6.28;3.33;;;;;;;22.42;100.00;101335.88;4948692;29;20065;-75
2022/07/13 06:42:45;;;;;;;10.30;3.78;;;;;;;22.58;100.00;101335.88;4962922;29;20327;-75
2022/07/13 06:45:31;;;;;;;5.57;3.00;;;;;;;22.87;99.92;101335.09;4960550;29;20458;-76
2022/07/13 06:48:17;;;;;;;6.45;3.15;;;;;;;22.56;97.60;101333.31;4947619;29;20038;-75
2022/07/13 06:51:03;;;;;;;4.90;3.03;;;;;;;22.84;96.58;101335.25;4961370;29;20098;-76
2022/07/13 06:53:49;;;;;;;4.88;2.90;;;;;;;22.86;96.52;101318.19;4961920;28;20146;-74
2022/07/13 06:56:35;;;;;;;5.88;2.78;;;;;;;22.96;97.70;101331.88;4948075;29;20106;-75
2022/07/13 06:59:21;;;;;;;7.13;3.10;;;;;;;22.69;98.35;101336.13;4958093;29;20170;-76
2022/07/13 07:02:07;;;;;;;4.28;2.83;;;;;;;22.84;99.59;101341.47;4958062;29;20019;-77
2022/07/13 07:04:54;;;;;;;6.82;2.95;;;;;;;22.76;100.00;101349.06;4947924;29;20110;-77
2022/07/13 07:07:41;;;;;;;5.35;3.25;;;;;;;23.50;97.35;101350.00;4957336;29;20047;-77
2022/07/13 07:10:27;;;;;;;6.72;3.90;;;;;;;23.66;94.05;101345.44;4944194;29;20027;-77
2022/07/13 07:13:14;;;;;;;5.13;3.70;;;;;;;23.87;90.52;101357.47;4945662;28;20031;-77
2022/07/13 07:16:00;;;;;;;8.55;5.97;;;;;;;23.65;90.54;101356.22;4956427;29;20459;-77
2022/07/13 07:18:46;;;;;;;7.20;2.97;;;;;;;23.90;90.02;101351.09;4956923;29;20035;-77
2022/07/13 07:21:31;;;;;;;4.90;2.80;;;;;;;23.85;87.98;101358.53;4957352;29;20055;-76
2022/07/13 07:24:17;;;;;;;10.23;2.78;;;;;;;23.62;88.14;101345.72;4957849;28;20450;-77
2022/07/13 07:27:05;;;;;;;4.55;2.83;;;;;;;24.33;83.04;101350.13;4956413;29;20110;-78
2022/07/13 07:29:51;;;;;;;6.95;2.67;;;;;;;24.26;86.18;101354.16;4956893;29;20046;-77
2022/07/13 07:32:38;;;;;;;4.78;2.63;;;;;;;24.60;83.39;101356.38;4943185;29;20100;-78
2022/07/13 07:35:24;;;;;;;5.05;3.67;;;;;;;24.71;78.21;101357.41;4956779;28;20027;-77
2022/07/13 07:38:10;;;;;;;5.20;3.35;;;;;;;24.66;78.47;101356.88;4956601;29;20031;-77
2022/07/13 07:40:56;;;;;;;8.13;3.17;;;;;;;24.97;77.59;101361.94;4956758;29;20031;-78
2022/07/13 07:43:41;;;;;;;8.73;2.80;;;;;;;24.60;79.60;101359.94;4956949;28;20023;-77
2022/07/13 07:46:28;;;;;;;4.68;2.63;;;;;;;25.45;75.69;101352.41;4955800;29;20510;-78
2022/07/13 07:49:14;;;;;;;8.70;3.08;;;;;;;25.24;77.17;101364.56;4956723;29;20039;-77
2022/07/13 07:52:00;;;;;;;4.55;2.90;;;;;;;25.62;75.78;101362.81;4955515;28;20034;-77
2022/07/13 07:54:46;;;;;;;3.97;2.90;;;;;;;25.92;75.34;101361.53;4942543;29;20128;-77
2022/07/13 07:57:43;;;;;;;8.23;2.90;;;;;;;26.29;73.32;101362.50;4956062;29;20418;-77
2022/07/13 08:00:30;;;;;;;5.20;2.97;;;;;;;26.16;73.80;101367.03;4942232;29;20078;-77
2022/07/13 08:03:16;;;;;;;14.52;8.88;;;;;;;26.32;73.43;101351.53;4955984;28;20123;-77
2022/07/13 08:06:02;;;;;;;6.57;3.45;;;;;;;26.17;73.07;101350.81;4955978;29;20362;-78
2022/07/13 08:08:48;;;;;;;6.72;2.97;;;;;;;26.48;72.35;101349.44;4956339;29;20027;-77
2022/07/13 08:11:35;;;;;;;7.03;3.38;;;;;;;26.91;70.63;101350.69;4955551;29;20121;-77
2022/07/13 08:14:21;;;;;;;6.45;3.22;;;;;;;26.65;68.19;101341.03;4941601;29;20031;-76
2022/07/13 08:17:07;;;;;;;6.00;3.20;;;;;;;27.17;66.11;101338.81;4942039;29;20023;-76
2022/07/13 08:19:53;;;;;;;6.40;3.40;;;;;;;27.64;65.87;101333.31;4955699;29;20034;-77
2022/07/13 08:22:39;;;;;;;7.80;4.30;;;;;;;27.81;61.85;101326.63;4941849;29;20023;-76
2022/07/13 08:25:25;;;;;;;4.07;2.88;;;;;;;27.39;59.93;101312.00;4955517;28;20415;-78
2022/07/13 08:28:11;;;;;;;5.43;3.30;;;;;;;27.31;61.60;101309.03;4956020;29;20047;-76
2022/07/13 08:30:57;;;;;;;8.45;3.75;;;;;;;27.58;57.36;101307.72;4955921;29;20058;-77
2022/07/13 08:39:51;;;;;;;4.35;2.72;;;;;;;27.33;60.37;101301.72;4955640;29;20365;-77
2022/07/13 08:42:38;;;;;;;6.78;2.63;;;;;;;27.60;57.49;101301.38;4955730;29;20034;-79
2022/07/13 08:45:25;;;;;;;10.00;2.55;;;;;;;27.51;56.77;101289.50;4955447;28;20521;-77
2022/07/13 08:48:16;;;;;;;6.22;2.75;;;;;;;28.73;54.97;101284.88;4942043;29;20091;-77
2022/07/13 08:51:03;;;;;;;7.85;2.33;;;;;;;29.22;50.94;101291.41;4941812;29;20063;-78
2022/07/13 08:53:51;;;;;;;2.97;2.45;;;;;;;29.25;49.09;101296.53;4955499;28;20110;-78
2022/07/13 08:56:38;;;;;;;9.98;2.92;;;;;;;29.82;47.99;101291.47;4941964;29;20102;-78
2022/07/13 08:59:24;;;;;;;7.10;2.33;;;;;;;29.91;45.04;101290.69;4941837;29;20027;-77
2022/07/13 09:02:10;;;;;;;9.00;3.70;;;;;;;30.03;46.65;101273.38;4956523;28;20110;-78
2022/07/13 09:04:57;;;;;;;7.40;2.47;;;;;;;29.24;46.04;101300.22;4959233;28;20177;-78
2022/07/13 09:08:00;;;;;;;2.90;1.85;;;;;;;29.36;41.70;101290.19;4946542;29;20213;-79
2022/07/13 09:11:00;;;;;;;4.45;1.40;;;;;;;28.66;40.00;101275.59;4958619;29;20027;-77
2022/07/13 09:13:46;;;;;;;6.90;4.32;;;;;;;29.76;39.28;101275.84;4959121;28;20125;-77
2022/07/13 09:16:32;;;;;;;3.60;2.17;;;;;;;29.61;38.01;101270.94;4958654;29;20031;-77
2022/07/13 09:19:18;;;;;;;2.53;1.80;;;;;;;29.12;37.88;101273.41;4958829;29;20437;-78
2022/07/13 09:22:08;;;;;;;2.90;1.60;;;;;;;29.12;37.54;101270.72;4959216;29;20365;-77
2022/07/13 09:24:54;;;;;;;2.33;1.50;;;;;;;28.99;37.64;101262.81;4958269;28;20125;-78
2022/07/13 09:27:50;;;;;;;3.55;1.38;;;;;;;29.35;37.92;101265.06;4958334;29;20074;-78
2022/07/13 09:30:41;;;;;;;3.20;1.50;;;;;;;29.05;37.34;101258.75;4932575;29;20454;-78
2022/07/13 09:33:35;;;;;;;2.72;1.60;;;;;;;28.59;37.95;101247.41;4958492;28;20374;-78
2022/07/13 09:36:22;;;;;;;2.80;1.30;;;;;;;28.66;37.99;101259.41;4958573;29;20027;-77
2022/07/13 09:39:11;;;;;;;2.70;1.65;;;;;;;29.12;37.20;101258.09;4944941;29;20049;-77
2022/07/13 09:41:57;;;;;;;3.40;1.10;;;;;;;29.47;35.31;101255.91;4958687;29;20450;-77
2022/07/13 09:48:00;;;;;;;2.25;1.30;;;;;;;29.48;35.26;101263.00;4958605;29;20019;-77
2022/07/13 09:50:52;;;;;;;4.45;1.20;;;;;;;29.74;34.32;101266.16;4958242;29;20174;-78
2022/07/13 09:53:39;;;;;;;2.90;1.30;;;;;;;29.38;33.97;101270.22;4958686;28;20042;-77
2022/07/13 09:56:28;;;;;;;6.30;1.20;;;;;;;29.07;35.28;101252.25;4958287;29;20038;-78
2022/07/13 09:59:15;;;;;;;2.53;1.40;;;;;;;28.95;35.31;101255.94;4957952;29;20027;-78
2022/07/13 10:02:02;;;;;;;3.92;1.10;;;;;;;29.09;35.54;101254.81;4945021;29;20054;-79
2022/07/13 10:04:49;;;;;;;5.50;1.10;;;;;;;29.20;34.02;101254.72;4957642;28;20035;-77
2022/07/13 10:07:36;;;;;;;1.73;0.95;;;;;;;29.35;32.88;101248.88;4957936;29;20369;-78
2022/07/13 10:10:22;;;;;;;2.75;0.98;;;;;;;29.52;32.78;101255.47;4957522;29;20378;-77
2022/07/13 10:13:08;;;;;;;1.88;1.00;;;;;;;29.81;32.71;101251.94;4958209;28;20466;-77
2022/07/13 10:15:54;;;;;;;0.98;0.90;;;;;;;29.53;32.56;101249.94;4956798;29;20354;-77
2022/07/13 10:18:41;;;;;;;11.13;4.47;;;;;;;29.87;33.42;101237.91;4958730;29;20097;-76
2022/07/13 10:21:42;;;;;;;2.67;2.17;;;;;;;30.11;32.26;101226.72;4958091;29;20536;-77
2022/07/13 10:24:28;;;;;;;4.60;1.58;;;;;;;29.98;32.79;101239.66;4957806;28;20043;-78
2022/07/13 10:27:21;;;;;;;4.85;1.10;;;;;;;29.63;32.03;101228.41;4957731;29;20447;-78
2022/07/13 10:30:22;;;;;;;6.60;1.13;;;;;;;29.49;33.01;101224.19;4957506;29;20437;-77
2022/07/13 10:33:19;;;;;;;4.75;2.55;;;;;;;29.95;32.80;101227.28;4956928;29;20051;-77
2022/07/13 10:36:06;;;;;;;3.63;1.40;;;;;;;30.31;31.98;101212.28;4958034;29;20097;-79
2022/07/13 10:39:10;;;;;;;3.88;1.10;;;;;;;30.22;32.28;101211.25;4957456;29;20027;-77
2022/07/13 10:42:04;;;;;;;2.88;1.38;;;;;;;30.44;31.03;101211.00;4957314;29;20023;-78
2022/07/13 10:44:49;;;;;;;3.50;1.38;;;;;;;30.29;31.43;101203.44;4943104;29;20037;-78
2022/07/13 10:47:46;;;;;;;3.15;1.33;;;;;;;30.23;31.24;101221.09;4957792;29;20054;-77
2022/07/13 10:50:59;;;;;;;4.80;1.27;;;;;;;30.63;30.56;101202.03;4957115;29;20062;-78
2022/07/13 10:53:46;;;;;;;2.95;1.98;;;;;;;30.31;30.21;101188.81;4957637;28;20034;-77
2022/07/13 10:56:32;;;;;;;6.65;1.60;;;;;;;29.94;31.24;101190.41;4956729;29;20419;-77
2022/07/13 10:59:59;;;;;;;8.50;1.40;;;;;;;29.23;31.41;101197.78;4956335;29;20367;-78
2022/07/13 11:02:55;;;;;;;2.80;0.90;;;;;;;29.09;30.78;101193.56;4957096;29;20031;-78
2022/07/13 11:06:04;;;;;;;6.15;1.23;;;;;;;29.87;31.51;101186.56;4957301;29;20027;-77
2022/07/13 11:09:20;;;;;;;3.20;1.05;;;;;;;29.48;30.19;101187.38;4960018;29;20031;-78
2022/07/13 11:12:21;;;;;;;3.00;1.20;;;;;;;29.74;30.48;101187.81;4958031;29;20042;-74
2022/07/13 11:15:50;;;;;;;4.25;1.17;;;;;;;30.18;30.43;101176.56;4957153;28;20035;-77
2022/07/13 11:18:37;;;;;;;7.10;1.77;;;;;;;29.87;30.12;101178.47;4956206;29;20038;-77
2022/07/13 11:21:23;;;;;;;6.55;2.00;;;;;;;30.48;30.53;101176.41;4955888;29;20517;-77
2022/07/13 11:27:33;;;;;;;3.63;1.73;;;;;;;30.82;29.05;101173.13;4956295;29;20126;-77
2022/07/13 11:30:27;;;;;;;7.10;2.08;;;;;;;30.85;29.57;101170.16;4942753;29;20027;-77
2022/07/13 11:33:15;;;;;;;4.47;2.17;;;;;;;30.97;29.35;101179.81;4956314;28;20118;-78
2022/07/13 11:36:01;;;;;;;13.35;2.33;;;;;;;30.81;29.23;101178.69;4956166;29;20046;-77
2022/07/13 11:38:47;;;;;;;5.60;1.67;;;;;;;30.75;28.78;101172.03;4957019;29;20469;-77
2022/07/13 11:41:34;;;;;;;2.38;1.85;;;;;;;30.62;28.08;101176.81;4956528;29;20110;-78
2022/07/13 11:44:40;;;;;;;3.70;1.65;;;;;;;30.49;28.51;101170.00;4955505;28;20031;-77
2022/07/13 11:47:27;;;;;;;1.65;1.33;;;;;;;29.88;28.99;101158.53;4955451;29;20027;-77
2022/07/13 11:50:13;;;;;;;4.22;1.60;;;;;;;30.87;29.39;101168.13;4956537;29;20137;-77
2022/07/13 11:52:59;;;;;;;8.73;4.75;;;;;;;30.61;29.44;101166.16;4955741;29;20035;-77
2022/07/13 11:55:44;;;;;;;4.82;2.72;;;;;;;30.56;28.91;101166.59;4943085;29;20042;-77
2022/07/13 11:58:33;;;;;;;19.00;2.05;;;;;;;30.26;28.67;101150.50;4958065;28;20110;-76
2022/07/13 12:01:19;;;;;;;2.53;1.63;;;;;;;30.68;28.97;101165.44;4957999;29;20098;-76
2022/07/13 12:04:05;;;;;;;4.93;1.10;;;;;;;31.63;27.87;101171.63;4955835;28;20130;-77
2022/07/13 12:07:08;;;;;;;2.45;1.25;;;;;;;31.41;27.89;101166.59;4956556;29;20370;-76
2022/07/13 12:10:01;;;;;;;4.88;1.38;;;;;;;31.19;28.33;101156.94;4955606;29;20110;-77
2022/07/13 12:12:48;;;;;;;5.28;1.52;;;;;;;30.66;28.51;101153.06;4955701;29;20042;-77
2022/07/13 12:15:34;;;;;;;5.60;1.17;;;;;;;30.19;28.72;101140.41;4955719;29;20427;-77
2022/07/13 12:18:20;;;;;;;5.00;1.45;;;;;;;30.39;29.09;101144.81;4957433;29;20031;-77
2022/07/13 12:21:06;;;;;;;5.80;1.33;;;;;;;30.19;29.04;101135.00;4955613;29;20050;-77
2022/07/13 12:23:52;;;;;;;2.90;1.40;;;;;;;31.04;28.77;101131.34;4955605;28;20106;-77
2022/07/13 12:26:50;;;;;;;4.80;1.90;;;;;;;30.72;29.21;101141.69;4955762;29;20441;-77
2022/07/13 12:29:35;;;;;;;3.95;1.65;;;;;;;30.55;28.94;101131.56;4956001;29;20062;-78
2022/07/13 12:32:21;;;;;;;3.85;1.30;;;;;;;30.51;29.18;101127.44;4955980;29;20454;-76
2022/07/13 12:35:14;;;;;;;5.00;1.40;;;;;;;30.22;29.37;101123.91;4955224;28;20027;-78
2022/07/13 12:38:02;;;;;;;4.07;1.30;;;;;;;30.38;29.38;101125.03;4957487;28;20031;-77
2022/07/13 12:40:51;;;;;;;2.58;1.60;;;;;;;30.86;29.33;101122.28;4958669;29;20051;-78
2022/07/13 12:43:37;;;;;;;5.32;1.50;;;;;;;31.07;29.05;101117.53;4959676;28;20031;-77
2022/07/13 12:46:23;;;;;;;4.03;1.10;;;;;;;31.27;27.39;101120.03;4959836;29;20033;-77
2022/07/13 12:49:09;;;;;;;4.53;1.25;;;;;;;30.38;28.38;101122.31;4959838;29;20035;-77
2022/07/13 12:52:02;;;;;;;3.30;1.25;;;;;;;30.10;28.54;101106.09;4958921;29;20054;-78
2022/07/13 12:54:50;;;;;;;2.60;1.50;;;;;;;30.60;28.81;101113.91;4959541;28;20421;-77
2022/07/13 12:57:36;;;;;;;4.32;1.90;;;;;;;31.12;27.61;101109.81;4958734;29;20031;-76
2022/07/13 13:00:25;;;;;;;6.65;4.05;;;;;;;31.38;27.10;101107.31;4958452;29;20031;-77
2022/07/13 13:03:11;;;;;;;2.28;1.38;;;;;;;31.41;26.66;101104.31;4945116;28;20031;-78
2022/07/13 13:05:57;;;;;;;5.10;1.15;;;;;;;31.19;27.10;101105.50;4959457;29;20401;-78
2022/07/13 13:08:43;;;;;;;4.95;1.70;;;;;;;31.45;27.32;101111.13;4959017;29;20035;-77